sensor_id;sensor_type;location;lat;lon;timestamp;P1;durP1;ratioP1;P2;durP2;ratioP2
46288;SDS011;63105;46.158;14.604;2022-12-29T00:01:16;13.88;;;8.10;;
46288;SDS011;63105;46.158;14.604;2022-12-29T00:03:41;13.73;;;8.18;;
46288;SDS011;63105;46.158;14.604;2022-12-29T00:06:06;14.70;;;8.00;;
46288;SDS011;63105;46.158;14.604;2022-12-29T00:08:31;15.02;;;8.43;;
46288;SDS011;63105;46.158;14.604;2022-12-29T00:11:09;15.05;;;8.20;;
46288;SDS011;63105;46.158;14.604;2022-12-29T00:13:35;13.52;;;8.15;;
46288;SDS011;63105;46.158;14.604;2022-12-29T00:16:19;13.00;;;7.90;;
46288;SDS011;63105;46.158;14.604;2022-12-29T00:18:44;13.00;;;7.68;;
46288;SDS011;63105;46.158;14.604;2022-12-29T00:21:12;13.77;;;8.32;;
46288;SDS011;63105;46.158;14.604;2022-12-29T00:23:57;14.88;;;8.98;;
46288;SDS011;63105;46.158;14.604;2022-12-29T00:26:41;13.65;;;8.35;;
46288;SDS011;63105;46.158;14.604;2022-12-29T00:29:25;14.15;;;8.35;;
46288;SDS011;63105;46.158;14.604;2022-12-29T00:32:09;13.68;;;8.30;;
46288;SDS011;63105;46.158;14.604;2022-12-29T00:34:53;14.63;;;8.40;;
46288;SDS011;63105;46.158;14.604;2022-12-29T00:37:46;14.10;;;7.68;;
46288;SDS011;63105;46.158;14.604;2022-12-29T00:43:15;15.30;;;8.57;;
46288;SDS011;63105;46.158;14.604;2022-12-29T00:45:59;16.10;;;8.80;;
46288;SDS011;63105;46.158;14.604;2022-12-29T00:48:24;15.60;;;9.25;;
46288;SDS011;63105;46.158;14.604;2022-12-29T00:51:07;15.93;;;9.20;;
46288;SDS011;63105;46.158;14.604;2022-12-29T00:53:33;15.63;;;8.80;;
46288;SDS011;63105;46.158;14.604;2022-12-29T00:55:58;15.32;;;9.43;;
46288;SDS011;63105;46.158;14.604;2022-12-29T00:58:23;14.60;;;9.70;;
46288;SDS011;63105;46.158;14.604;2022-12-29T01:00:48;14.63;;;8.88;;
46288;SDS011;63105;46.158;14.604;2022-12-29T01:03:14;16.05;;;9.27;;
46288;SDS011;63105;46.158;14.604;2022-12-29T01:05:39;15.93;;;9.38;;
46288;SDS011;63105;46.158;14.604;2022-12-29T01:08:04;17.70;;;9.60;;
46288;SDS011;63105;46.158;14.604;2022-12-29T01:10:29;15.43;;;9.80;;
46288;SDS011;63105;46.158;14.604;2022-12-29T01:12:54;18.10;;;9.77;;
46288;SDS011;63105;46.158;14.604;2022-12-29T01:15:20;14.88;;;9.30;;
46288;SDS011;63105;46.158;14.604;2022-12-29T01:17:45;16.20;;;9.75;;
46288;SDS011;63105;46.158;14.604;2022-12-29T01:20:10;15.27;;;9.18;;
46288;SDS011;63105;46.158;14.604;2022-12-29T01:22:36;16.38;;;9.55;;
46288;SDS011;63105;46.158;14.604;2022-12-29T01:25:01;16.02;;;10.32;;
46288;SDS011;63105;46.158;14.604;2022-12-29T01:27:26;17.73;;;10.32;;
46288;SDS011;63105;46.158;14.604;2022-12-29T01:29:52;16.48;;;10.05;;
46288;SDS011;63105;46.158;14.604;2022-12-29T01:32:17;17.92;;;11.00;;
46288;SDS011;63105;46.158;14.604;2022-12-29T01:34:42;17.58;;;10.82;;
46288;SDS011;63105;46.158;14.604;2022-12-29T01:37:08;15.48;;;9.77;;
46288;SDS011;63105;46.158;14.604;2022-12-29T01:39:33;16.60;;;10.05;;
46288;SDS011;63105;46.158;14.604;2022-12-29T01:41:58;16.00;;;9.88;;
46288;SDS011;63105;46.158;14.604;2022-12-29T01:47:07;18.30;;;11.20;;
46288;SDS011;63105;46.158;14.604;2022-12-29T01:49:33;15.80;;;10.40;;
46288;SDS011;63105;46.158;14.604;2022-12-29T01:51:59;16.98;;;10.55;;
46288;SDS011;63105;46.158;14.604;2022-12-29T01:54:27;16.42;;;9.90;;
46288;SDS011;63105;46.158;14.604;2022-12-29T01:56:54;16.10;;;9.90;;
46288;SDS011;63105;46.158;14.604;2022-12-29T01:59:22;14.48;;;8.57;;
46288;SDS011;63105;46.158;14.604;2022-12-29T02:01:49;15.40;;;9.95;;
46288;SDS011;63105;46.158;14.604;2022-12-29T02:04:15;14.07;;;9.43;;
46288;SDS011;63105;46.158;14.604;2022-12-29T02:06:45;14.80;;;9.48;;
46288;SDS011;63105;46.158;14.604;2022-12-29T02:09:11;14.00;;;8.30;;
46288;SDS011;63105;46.158;14.604;2022-12-29T02:11:36;12.43;;;8.10;;
46288;SDS011;63105;46.158;14.604;2022-12-29T02:14:01;12.13;;;7.85;;
46288;SDS011;63105;46.158;14.604;2022-12-29T02:16:40;14.10;;;8.57;;
46288;SDS011;63105;46.158;14.604;2022-12-29T02:22:10;12.73;;;7.25;;
46288;SDS011;63105;46.158;14.604;2022-12-29T02:35:20;13.65;;;8.23;;
46288;SDS011;63105;46.158;14.604;2022-12-29T02:38:03;11.82;;;7.50;;
46288;SDS011;63105;46.158;14.604;2022-12-29T02:40:39;12.57;;;7.57;;
46288;SDS011;63105;46.158;14.604;2022-12-29T02:50:40;13.10;;;7.97;;
46288;SDS011;63105;46.158;14.604;2022-12-29T02:53:09;12.60;;;7.75;;
46288;SDS011;63105;46.158;14.604;2022-12-29T02:55:35;12.25;;;7.60;;
46288;SDS011;63105;46.158;14.604;2022-12-29T03:08:21;12.38;;;7.80;;
46288;SDS011;63105;46.158;14.604;2022-12-29T03:10:50;12.65;;;7.55;;
46288;SDS011;63105;46.158;14.604;2022-12-29T03:16:07;12.75;;;7.15;;
46288;SDS011;63105;46.158;14.604;2022-12-29T03:21:50;12.55;;;7.50;;
46288;SDS011;63105;46.158;14.604;2022-12-29T03:24:14;12.40;;;7.78;;
46288;SDS011;63105;46.158;14.604;2022-12-29T03:26:40;12.80;;;7.63;;
46288;SDS011;63105;46.158;14.604;2022-12-29T03:29:06;11.77;;;7.57;;
46288;SDS011;63105;46.158;14.604;2022-12-29T03:31:32;15.25;;;8.20;;
46288;SDS011;63105;46.158;14.604;2022-12-29T03:33:57;11.77;;;7.53;;
46288;SDS011;63105;46.158;14.604;2022-12-29T03:36:24;12.95;;;8.10;;
46288;SDS011;63105;46.158;14.604;2022-12-29T03:38:53;15.15;;;8.50;;
46288;SDS011;63105;46.158;14.604;2022-12-29T03:41:27;17.08;;;9.52;;
46288;SDS011;63105;46.158;14.604;2022-12-29T03:43:53;12.93;;;7.78;;
46288;SDS011;63105;46.158;14.604;2022-12-29T03:46:18;14.00;;;8.20;;
46288;SDS011;63105;46.158;14.604;2022-12-29T03:48:44;12.43;;;7.55;;
46288;SDS011;63105;46.158;14.604;2022-12-29T03:51:09;10.68;;;6.68;;
46288;SDS011;63105;46.158;14.604;2022-12-29T03:53:34;15.10;;;8.20;;
46288;SDS011;63105;46.158;14.604;2022-12-29T03:55:59;12.68;;;7.50;;
46288;SDS011;63105;46.158;14.604;2022-12-29T03:58:24;12.23;;;7.43;;
46288;SDS011;63105;46.158;14.604;2022-12-29T04:00:50;13.02;;;8.18;;
46288;SDS011;63105;46.158;14.604;2022-12-29T04:03:15;12.27;;;7.10;;
46288;SDS011;63105;46.158;14.604;2022-12-29T04:05:40;12.45;;;7.90;;
46288;SDS011;63105;46.158;14.604;2022-12-29T04:08:05;14.38;;;7.97;;
46288;SDS011;63105;46.158;14.604;2022-12-29T04:10:30;12.27;;;7.45;;
46288;SDS011;63105;46.158;14.604;2022-12-29T04:12:56;11.88;;;6.97;;
46288;SDS011;63105;46.158;14.604;2022-12-29T04:15:21;13.85;;;8.32;;
46288;SDS011;63105;46.158;14.604;2022-12-29T04:17:48;12.55;;;7.65;;
46288;SDS011;63105;46.158;14.604;2022-12-29T04:20:13;13.68;;;7.90;;
46288;SDS011;63105;46.158;14.604;2022-12-29T04:23:00;12.82;;;8.43;;
46288;SDS011;63105;46.158;14.604;2022-12-29T04:25:26;13.73;;;8.50;;
46288;SDS011;63105;46.158;14.604;2022-12-29T04:27:51;14.65;;;8.30;;
46288;SDS011;63105;46.158;14.604;2022-12-29T04:30:16;14.38;;;8.73;;
46288;SDS011;63105;46.158;14.604;2022-12-29T04:32:41;15.68;;;8.50;;
46288;SDS011;63105;46.158;14.604;2022-12-29T04:35:06;14.48;;;8.48;;
46288;SDS011;63105;46.158;14.604;2022-12-29T04:37:32;14.35;;;8.90;;
46288;SDS011;63105;46.158;14.604;2022-12-29T04:39:57;13.30;;;8.60;;
46288;SDS011;63105;46.158;14.604;2022-12-29T04:42:22;14.65;;;8.73;;
46288;SDS011;63105;46.158;14.604;2022-12-29T04:44:47;14.27;;;8.93;;
46288;SDS011;63105;46.158;14.604;2022-12-29T04:47:13;15.60;;;8.90;;
46288;SDS011;63105;46.158;14.604;2022-12-29T04:49:38;15.35;;;8.82;;
46288;SDS011;63105;46.158;14.604;2022-12-29T04:52:03;15.60;;;9.60;;
46288;SDS011;63105;46.158;14.604;2022-12-29T04:54:29;16.67;;;9.38;;
46288;SDS011;63105;46.158;14.604;2022-12-29T04:56:54;14.95;;;9.38;;
46288;SDS011;63105;46.158;14.604;2022-12-29T04:59:19;15.25;;;9.10;;
46288;SDS011;63105;46.158;14.604;2022-12-29T05:01:44;18.45;;;10.07;;
46288;SDS011;63105;46.158;14.604;2022-12-29T05:04:09;15.82;;;9.75;;
46288;SDS011;63105;46.158;14.604;2022-12-29T05:06:34;16.92;;;10.02;;
46288;SDS011;63105;46.158;14.604;2022-12-29T05:09:00;16.15;;;9.90;;
46288;SDS011;63105;46.158;14.604;2022-12-29T05:11:25;15.13;;;9.63;;
46288;SDS011;63105;46.158;14.604;2022-12-29T05:13:50;15.23;;;8.95;;
46288;SDS011;63105;46.158;14.604;2022-12-29T05:16:15;17.92;;;10.57;;
46288;SDS011;63105;46.158;14.604;2022-12-29T05:18:40;16.48;;;10.13;;
46288;SDS011;63105;46.158;14.604;2022-12-29T05:21:06;16.27;;;10.43;;
46288;SDS011;63105;46.158;14.604;2022-12-29T05:23:31;16.63;;;10.52;;
46288;SDS011;63105;46.158;14.604;2022-12-29T05:25:56;18.13;;;10.57;;
46288;SDS011;63105;46.158;14.604;2022-12-29T05:28:21;16.65;;;10.48;;
46288;SDS011;63105;46.158;14.604;2022-12-29T05:30:50;16.08;;;10.25;;
46288;SDS011;63105;46.158;14.604;2022-12-29T05:33:15;16.02;;;10.35;;
46288;SDS011;63105;46.158;14.604;2022-12-29T05:35:40;18.80;;;10.52;;
46288;SDS011;63105;46.158;14.604;2022-12-29T05:38:06;15.57;;;10.00;;
46288;SDS011;63105;46.158;14.604;2022-12-29T05:40:31;18.42;;;11.20;;
46288;SDS011;63105;46.158;14.604;2022-12-29T05:42:56;16.98;;;10.43;;
46288;SDS011;63105;46.158;14.604;2022-12-29T05:45:21;16.55;;;10.52;;
46288;SDS011;63105;46.158;14.604;2022-12-29T05:47:46;16.88;;;10.20;;
46288;SDS011;63105;46.158;14.604;2022-12-29T05:50:11;15.73;;;10.40;;
46288;SDS011;63105;46.158;14.604;2022-12-29T05:52:37;23.73;;;15.68;;
46288;SDS011;63105;46.158;14.604;2022-12-29T05:55:02;17.50;;;10.93;;
46288;SDS011;63105;46.158;14.604;2022-12-29T05:57:27;22.75;;;14.27;;
46288;SDS011;63105;46.158;14.604;2022-12-29T05:59:52;18.05;;;11.55;;
46288;SDS011;63105;46.158;14.604;2022-12-29T06:02:18;20.10;;;12.52;;
46288;SDS011;63105;46.158;14.604;2022-12-29T06:04:43;19.35;;;11.88;;
46288;SDS011;63105;46.158;14.604;2022-12-29T06:07:08;18.95;;;11.48;;
46288;SDS011;63105;46.158;14.604;2022-12-29T06:09:33;18.55;;;11.90;;
46288;SDS011;63105;46.158;14.604;2022-12-29T06:11:58;19.20;;;11.95;;
46288;SDS011;63105;46.158;14.604;2022-12-29T06:14:24;18.55;;;11.48;;
46288;SDS011;63105;46.158;14.604;2022-12-29T06:16:49;21.48;;;12.93;;
46288;SDS011;63105;46.158;14.604;2022-12-29T06:19:14;23.00;;;14.63;;
46288;SDS011;63105;46.158;14.604;2022-12-29T06:21:40;22.58;;;12.93;;
46288;SDS011;63105;46.158;14.604;2022-12-29T06:24:05;22.67;;;13.25;;
46288;SDS011;63105;46.158;14.604;2022-12-29T06:26:30;19.35;;;13.40;;
46288;SDS011;63105;46.158;14.604;2022-12-29T06:28:55;17.77;;;11.25;;
46288;SDS011;63105;46.158;14.604;2022-12-29T06:31:21;19.95;;;12.70;;
46288;SDS011;63105;46.158;14.604;2022-12-29T06:33:46;18.55;;;11.63;;
46288;SDS011;63105;46.158;14.604;2022-12-29T06:36:12;17.55;;;11.75;;
46288;SDS011;63105;46.158;14.604;2022-12-29T06:38:37;36.92;;;19.05;;
46288;SDS011;63105;46.158;14.604;2022-12-29T06:41:02;33.75;;;18.00;;
46288;SDS011;63105;46.158;14.604;2022-12-29T06:43:27;26.75;;;15.10;;
46288;SDS011;63105;46.158;14.604;2022-12-29T06:45:52;22.52;;;13.40;;
46288;SDS011;63105;46.158;14.604;2022-12-29T06:48:17;22.55;;;13.98;;
46288;SDS011;63105;46.158;14.604;2022-12-29T06:50:43;26.25;;;15.35;;
46288;SDS011;63105;46.158;14.604;2022-12-29T06:53:08;24.77;;;15.93;;
46288;SDS011;63105;46.158;14.604;2022-12-29T06:55:33;21.75;;;14.23;;
46288;SDS011;63105;46.158;14.604;2022-12-29T06:57:58;26.75;;;15.70;;
46288;SDS011;63105;46.158;14.604;2022-12-29T07:00:24;22.02;;;13.63;;
46288;SDS011;63105;46.158;14.604;2022-12-29T07:02:50;27.35;;;15.13;;
46288;SDS011;63105;46.158;14.604;2022-12-29T07:05:15;23.17;;;14.60;;
46288;SDS011;63105;46.158;14.604;2022-12-29T07:07:40;23.27;;;13.32;;
46288;SDS011;63105;46.158;14.604;2022-12-29T07:10:05;23.15;;;13.77;;
46288;SDS011;63105;46.158;14.604;2022-12-29T07:12:31;21.83;;;12.75;;
46288;SDS011;63105;46.158;14.604;2022-12-29T07:14:56;22.17;;;13.63;;
46288;SDS011;63105;46.158;14.604;2022-12-29T07:17:21;23.10;;;13.57;;
46288;SDS011;63105;46.158;14.604;2022-12-29T07:19:46;22.88;;;13.75;;
46288;SDS011;63105;46.158;14.604;2022-12-29T07:22:11;22.48;;;13.30;;
46288;SDS011;63105;46.158;14.604;2022-12-29T07:24:36;23.15;;;13.70;;
46288;SDS011;63105;46.158;14.604;2022-12-29T07:27:02;34.88;;;22.35;;
46288;SDS011;63105;46.158;14.604;2022-12-29T07:29:27;25.60;;;15.85;;
46288;SDS011;63105;46.158;14.604;2022-12-29T07:31:52;20.83;;;13.38;;
46288;SDS011;63105;46.158;14.604;2022-12-29T07:34:18;20.63;;;13.13;;
46288;SDS011;63105;46.158;14.604;2022-12-29T07:36:43;22.98;;;13.27;;
46288;SDS011;63105;46.158;14.604;2022-12-29T07:39:08;20.42;;;13.02;;
46288;SDS011;63105;46.158;14.604;2022-12-29T07:41:33;19.60;;;12.07;;
46288;SDS011;63105;46.158;14.604;2022-12-29T07:43:59;20.10;;;12.38;;
46288;SDS011;63105;46.158;14.604;2022-12-29T07:46:24;20.33;;;12.68;;
46288;SDS011;63105;46.158;14.604;2022-12-29T07:48:50;20.83;;;12.40;;
46288;SDS011;63105;46.158;14.604;2022-12-29T07:51:15;23.50;;;15.05;;
46288;SDS011;63105;46.158;14.604;2022-12-29T07:53:40;33.50;;;20.77;;
46288;SDS011;63105;46.158;14.604;2022-12-29T07:56:05;34.47;;;20.98;;
46288;SDS011;63105;46.158;14.604;2022-12-29T07:58:31;30.35;;;19.70;;
46288;SDS011;63105;46.158;14.604;2022-12-29T08:00:56;24.33;;;15.43;;
46288;SDS011;63105;46.158;14.604;2022-12-29T08:03:22;20.40;;;13.25;;
46288;SDS011;63105;46.158;14.604;2022-12-29T08:05:47;23.70;;;14.93;;
46288;SDS011;63105;46.158;14.604;2022-12-29T08:08:12;24.10;;;15.43;;
46288;SDS011;63105;46.158;14.604;2022-12-29T08:10:37;22.20;;;13.88;;
46288;SDS011;63105;46.158;14.604;2022-12-29T08:13:03;23.30;;;13.82;;
46288;SDS011;63105;46.158;14.604;2022-12-29T08:15:28;21.70;;;13.25;;
46288;SDS011;63105;46.158;14.604;2022-12-29T08:17:53;20.80;;;12.93;;
46288;SDS011;63105;46.158;14.604;2022-12-29T08:20:18;31.58;;;18.63;;
46288;SDS011;63105;46.158;14.604;2022-12-29T08:22:43;29.85;;;18.25;;
46288;SDS011;63105;46.158;14.604;2022-12-29T08:25:09;23.77;;;15.40;;
46288;SDS011;63105;46.158;14.604;2022-12-29T08:27:34;23.52;;;13.38;;
46288;SDS011;63105;46.158;14.604;2022-12-29T08:29:59;19.40;;;13.13;;
46288;SDS011;63105;46.158;14.604;2022-12-29T08:32:25;23.65;;;15.55;;
46288;SDS011;63105;46.158;14.604;2022-12-29T08:34:51;23.80;;;14.10;;
46288;SDS011;63105;46.158;14.604;2022-12-29T08:37:16;23.23;;;12.90;;
46288;SDS011;63105;46.158;14.604;2022-12-29T08:39:41;27.20;;;15.85;;
46288;SDS011;63105;46.158;14.604;2022-12-29T08:42:07;23.25;;;13.57;;
46288;SDS011;63105;46.158;14.604;2022-12-29T08:44:32;27.90;;;15.48;;
46288;SDS011;63105;46.158;14.604;2022-12-29T08:46:57;26.90;;;16.13;;
46288;SDS011;63105;46.158;14.604;2022-12-29T08:49:22;24.40;;;14.40;;
46288;SDS011;63105;46.158;14.604;2022-12-29T08:51:47;36.88;;;23.17;;
46288;SDS011;63105;46.158;14.604;2022-12-29T08:54:12;27.40;;;17.05;;
46288;SDS011;63105;46.158;14.604;2022-12-29T08:56:38;21.20;;;12.80;;
46288;SDS011;63105;46.158;14.604;2022-12-29T08:59:03;21.08;;;12.85;;
46288;SDS011;63105;46.158;14.604;2022-12-29T09:01:28;19.00;;;12.07;;
46288;SDS011;63105;46.158;14.604;2022-12-29T09:03:55;30.73;;;18.77;;
46288;SDS011;63105;46.158;14.604;2022-12-29T09:06:20;30.73;;;17.67;;
46288;SDS011;63105;46.158;14.604;2022-12-29T09:08:45;20.58;;;12.95;;
46288;SDS011;63105;46.158;14.604;2022-12-29T09:11:28;21.40;;;13.35;;
46288;SDS011;63105;46.158;14.604;2022-12-29T09:13:54;19.90;;;13.40;;
46288;SDS011;63105;46.158;14.604;2022-12-29T09:16:21;20.98;;;12.95;;
46288;SDS011;63105;46.158;14.604;2022-12-29T09:18:47;18.85;;;12.02;;
46288;SDS011;63105;46.158;14.604;2022-12-29T09:21:12;17.90;;;11.15;;
46288;SDS011;63105;46.158;14.604;2022-12-29T09:23:38;18.75;;;10.88;;
46288;SDS011;63105;46.158;14.604;2022-12-29T09:26:03;17.73;;;11.40;;
46288;SDS011;63105;46.158;14.604;2022-12-29T09:28:28;15.13;;;9.27;;
46288;SDS011;63105;46.158;14.604;2022-12-29T09:30:54;16.20;;;10.15;;
46288;SDS011;63105;46.158;14.604;2022-12-29T09:33:19;16.75;;;11.05;;
46288;SDS011;63105;46.158;14.604;2022-12-29T09:35:48;14.55;;;9.48;;
46288;SDS011;63105;46.158;14.604;2022-12-29T09:38:14;16.98;;;9.98;;
46288;SDS011;63105;46.158;14.604;2022-12-29T09:40:40;17.40;;;10.50;;
46288;SDS011;63105;46.158;14.604;2022-12-29T09:48:34;23.52;;;11.95;;
46288;SDS011;63105;46.158;14.604;2022-12-29T09:51:00;23.75;;;14.60;;
46288;SDS011;63105;46.158;14.604;2022-12-29T09:53:31;23.55;;;12.15;;
46288;SDS011;63105;46.158;14.604;2022-12-29T09:56:00;22.08;;;13.35;;
46288;SDS011;63105;46.158;14.604;2022-12-29T09:58:35;17.50;;;10.57;;
46288;SDS011;63105;46.158;14.604;2022-12-29T10:01:05;15.93;;;9.95;;
46288;SDS011;63105;46.158;14.604;2022-12-29T10:03:47;20.42;;;9.40;;
46288;SDS011;63105;46.158;14.604;2022-12-29T10:06:59;14.65;;;9.40;;
46288;SDS011;63105;46.158;14.604;2022-12-29T10:11:49;17.75;;;11.30;;
46288;SDS011;63105;46.158;14.604;2022-12-29T10:17:02;17.35;;;10.85;;
46288;SDS011;63105;46.158;14.604;2022-12-29T10:22:04;18.00;;;11.77;;
46288;SDS011;63105;46.158;14.604;2022-12-29T10:24:30;16.48;;;10.68;;
46288;SDS011;63105;46.158;14.604;2022-12-29T10:26:56;15.48;;;10.23;;
46288;SDS011;63105;46.158;14.604;2022-12-29T10:29:27;18.00;;;11.00;;
46288;SDS011;63105;46.158;14.604;2022-12-29T10:31:58;17.70;;;10.40;;
46288;SDS011;63105;46.158;14.604;2022-12-29T10:34:26;15.20;;;9.27;;
46288;SDS011;63105;46.158;14.604;2022-12-29T10:36:54;14.48;;;9.60;;
46288;SDS011;63105;46.158;14.604;2022-12-29T10:39:38;15.43;;;10.52;;
46288;SDS011;63105;46.158;14.604;2022-12-29T10:44:49;18.38;;;10.00;;
46288;SDS011;63105;46.158;14.604;2022-12-29T10:47:16;19.73;;;12.70;;
46288;SDS011;63105;46.158;14.604;2022-12-29T10:49:42;15.93;;;10.02;;
46288;SDS011;63105;46.158;14.604;2022-12-29T10:52:11;16.70;;;10.30;;
46288;SDS011;63105;46.158;14.604;2022-12-29T10:54:47;17.70;;;11.27;;
46288;SDS011;63105;46.158;14.604;2022-12-29T10:59:39;18.27;;;12.32;;
46288;SDS011;63105;46.158;14.604;2022-12-29T11:04:40;23.40;;;14.23;;
46288;SDS011;63105;46.158;14.604;2022-12-29T11:07:07;28.17;;;17.42;;
46288;SDS011;63105;46.158;14.604;2022-12-29T11:09:34;22.45;;;14.50;;
46288;SDS011;63105;46.158;14.604;2022-12-29T11:11:59;18.73;;;12.82;;
46288;SDS011;63105;46.158;14.604;2022-12-29T11:14:29;30.55;;;21.25;;
46288;SDS011;63105;46.158;14.604;2022-12-29T11:16:56;24.02;;;17.40;;
46288;SDS011;63105;46.158;14.604;2022-12-29T11:19:22;19.08;;;13.20;;
46288;SDS011;63105;46.158;14.604;2022-12-29T11:21:48;29.17;;;18.88;;
46288;SDS011;63105;46.158;14.604;2022-12-29T11:24:26;29.17;;;18.52;;
46288;SDS011;63105;46.158;14.604;2022-12-29T11:26:55;22.75;;;15.93;;
46288;SDS011;63105;46.158;14.604;2022-12-29T11:29:40;20.35;;;13.57;;
46288;SDS011;63105;46.158;14.604;2022-12-29T11:34:37;22.55;;;13.98;;
46288;SDS011;63105;46.158;14.604;2022-12-29T11:37:03;23.40;;;15.30;;
46288;SDS011;63105;46.158;14.604;2022-12-29T11:39:37;19.75;;;12.70;;
46288;SDS011;63105;46.158;14.604;2022-12-29T11:42:03;15.68;;;10.48;;
46288;SDS011;63105;46.158;14.604;2022-12-29T11:44:29;17.98;;;12.15;;
46288;SDS011;63105;46.158;14.604;2022-12-29T11:46:57;15.85;;;10.50;;
46288;SDS011;63105;46.158;14.604;2022-12-29T11:49:23;20.40;;;13.82;;
46288;SDS011;63105;46.158;14.604;2022-12-29T11:51:50;23.17;;;14.23;;
46288;SDS011;63105;46.158;14.604;2022-12-29T11:54:22;18.17;;;12.07;;
46288;SDS011;63105;46.158;14.604;2022-12-29T11:56:48;14.65;;;10.00;;
46288;SDS011;63105;46.158;14.604;2022-12-29T11:59:56;19.95;;;12.18;;
46288;SDS011;63105;46.158;14.604;2022-12-29T12:04:47;24.42;;;15.98;;
46288;SDS011;63105;46.158;14.604;2022-12-29T12:07:18;19.50;;;13.25;;
46288;SDS011;63105;46.158;14.604;2022-12-29T12:09:58;15.45;;;10.57;;
46288;SDS011;63105;46.158;14.604;2022-12-29T12:12:39;16.38;;;10.13;;
46288;SDS011;63105;46.158;14.604;2022-12-29T12:15:08;16.98;;;10.38;;
46288;SDS011;63105;46.158;14.604;2022-12-29T12:17:49;15.27;;;10.48;;
46288;SDS011;63105;46.158;14.604;2022-12-29T12:20:22;17.42;;;11.20;;
46288;SDS011;63105;46.158;14.604;2022-12-29T12:22:53;20.75;;;13.52;;
46288;SDS011;63105;46.158;14.604;2022-12-29T12:25:21;23.30;;;14.18;;
46288;SDS011;63105;46.158;14.604;2022-12-29T12:27:48;20.60;;;14.40;;
46288;SDS011;63105;46.158;14.604;2022-12-29T12:30:20;18.48;;;12.60;;
46288;SDS011;63105;46.158;14.604;2022-12-29T12:35:14;22.83;;;14.77;;
46288;SDS011;63105;46.158;14.604;2022-12-29T12:45:48;26.80;;;19.98;;
46288;SDS011;63105;46.158;14.604;2022-12-29T12:48:23;20.08;;;14.07;;
46288;SDS011;63105;46.158;14.604;2022-12-29T12:53:41;18.25;;;12.27;;
46288;SDS011;63105;46.158;14.604;2022-12-29T12:58:47;22.60;;;14.17;;
46288;SDS011;63105;46.158;14.604;2022-12-29T13:03:48;23.63;;;15.03;;
46288;SDS011;63105;46.158;14.604;2022-12-29T13:06:26;21.52;;;14.73;;
46288;SDS011;63105;46.158;14.604;2022-12-29T13:14:23;23.00;;;15.52;;
46288;SDS011;63105;46.158;14.604;2022-12-29T13:16:59;28.02;;;21.60;;
46288;SDS011;63105;46.158;14.604;2022-12-29T13:19:30;21.80;;;14.55;;
46288;SDS011;63105;46.158;14.604;2022-12-29T13:24:36;22.58;;;14.15;;
46288;SDS011;63105;46.158;14.604;2022-12-29T13:29:50;22.02;;;14.82;;
46288;SDS011;63105;46.158;14.604;2022-12-29T13:32:21;22.17;;;14.88;;
46288;SDS011;63105;46.158;14.604;2022-12-29T13:37:17;17.25;;;12.13;;
46288;SDS011;63105;46.158;14.604;2022-12-29T13:39:51;21.00;;;15.82;;
46288;SDS011;63105;46.158;14.604;2022-12-29T13:42:17;17.73;;;12.68;;
46288;SDS011;63105;46.158;14.604;2022-12-29T13:44:45;18.75;;;12.88;;
46288;SDS011;63105;46.158;14.604;2022-12-29T13:49:36;16.10;;;11.60;;
46288;SDS011;63105;46.158;14.604;2022-12-29T13:52:12;18.90;;;12.13;;
46288;SDS011;63105;46.158;14.604;2022-12-29T13:54:45;19.73;;;13.27;;
46288;SDS011;63105;46.158;14.604;2022-12-29T13:59:57;21.38;;;14.07;;
46288;SDS011;63105;46.158;14.604;2022-12-29T14:02:31;21.15;;;13.82;;
46288;SDS011;63105;46.158;14.604;2022-12-29T14:05:05;21.63;;;13.63;;
46288;SDS011;63105;46.158;14.604;2022-12-29T14:07:46;26.77;;;16.85;;
46288;SDS011;63105;46.158;14.604;2022-12-29T14:13:13;23.05;;;16.58;;
46288;SDS011;63105;46.158;14.604;2022-12-29T14:15:40;34.00;;;21.55;;
46288;SDS011;63105;46.158;14.604;2022-12-29T14:18:16;27.45;;;19.40;;
46288;SDS011;63105;46.158;14.604;2022-12-29T14:20:46;19.85;;;14.23;;
46288;SDS011;63105;46.158;14.604;2022-12-29T14:23:16;24.02;;;16.42;;
46288;SDS011;63105;46.158;14.604;2022-12-29T14:28:26;24.08;;;16.33;;
46288;SDS011;63105;46.158;14.604;2022-12-29T14:30:52;19.00;;;12.75;;
46288;SDS011;63105;46.158;14.604;2022-12-29T14:33:18;21.65;;;13.40;;
46288;SDS011;63105;46.158;14.604;2022-12-29T14:35:44;19.90;;;13.65;;
46288;SDS011;63105;46.158;14.604;2022-12-29T14:38:21;25.92;;;17.33;;
46288;SDS011;63105;46.158;14.604;2022-12-29T14:40:47;28.42;;;20.02;;
46288;SDS011;63105;46.158;14.604;2022-12-29T14:43:14;36.30;;;28.13;;
46288;SDS011;63105;46.158;14.604;2022-12-29T14:45:43;51.45;;;34.63;;
46288;SDS011;63105;46.158;14.604;2022-12-29T14:48:36;51.85;;;37.53;;
46288;SDS011;63105;46.158;14.604;2022-12-29T14:50:59;30.45;;;22.05;;
46288;SDS011;63105;46.158;14.604;2022-12-29T14:53:44;31.08;;;21.10;;
46288;SDS011;63105;46.158;14.604;2022-12-29T14:56:10;34.75;;;22.65;;
46288;SDS011;63105;46.158;14.604;2022-12-29T14:58:44;33.83;;;23.15;;
46288;SDS011;63105;46.158;14.604;2022-12-29T15:01:24;32.08;;;22.42;;
46288;SDS011;63105;46.158;14.604;2022-12-29T15:03:50;30.75;;;21.73;;
46288;SDS011;63105;46.158;14.604;2022-12-29T15:06:17;26.25;;;18.08;;
46288;SDS011;63105;46.158;14.604;2022-12-29T15:09:00;36.03;;;23.88;;
46288;SDS011;63105;46.158;14.604;2022-12-29T15:14:01;29.93;;;18.87;;
46288;SDS011;63105;46.158;14.604;2022-12-29T15:16:33;26.33;;;17.80;;
46288;SDS011;63105;46.158;14.604;2022-12-29T15:19:01;26.30;;;17.30;;
46288;SDS011;63105;46.158;14.604;2022-12-29T15:21:30;28.83;;;19.05;;
46288;SDS011;63105;46.158;14.604;2022-12-29T15:23:56;38.65;;;24.50;;
46288;SDS011;63105;46.158;14.604;2022-12-29T15:26:21;45.38;;;30.98;;
46288;SDS011;63105;46.158;14.604;2022-12-29T15:28:50;51.75;;;35.63;;
46288;SDS011;63105;46.158;14.604;2022-12-29T15:31:19;52.22;;;34.22;;
46288;SDS011;63105;46.158;14.604;2022-12-29T15:33:46;53.42;;;35.80;;
46288;SDS011;63105;46.158;14.604;2022-12-29T15:36:18;32.55;;;22.48;;
46288;SDS011;63105;46.158;14.604;2022-12-29T15:38:44;29.23;;;20.90;;
46288;SDS011;63105;46.158;14.604;2022-12-29T15:43:42;42.17;;;27.23;;
46288;SDS011;63105;46.158;14.604;2022-12-29T15:46:10;51.75;;;35.17;;
46288;SDS011;63105;46.158;14.604;2022-12-29T15:48:35;31.13;;;22.08;;
46288;SDS011;63105;46.158;14.604;2022-12-29T15:51:03;34.25;;;23.75;;
46288;SDS011;63105;46.158;14.604;2022-12-29T15:53:29;42.97;;;28.55;;
46288;SDS011;63105;46.158;14.604;2022-12-29T15:55:56;35.38;;;24.73;;
46288;SDS011;63105;46.158;14.604;2022-12-29T15:58:24;48.08;;;32.22;;
46288;SDS011;63105;46.158;14.604;2022-12-29T16:00:57;35.05;;;24.13;;
46288;SDS011;63105;46.158;14.604;2022-12-29T16:03:23;28.00;;;19.88;;
46288;SDS011;63105;46.158;14.604;2022-12-29T16:05:50;29.85;;;19.73;;
46288;SDS011;63105;46.158;14.604;2022-12-29T16:08:38;33.38;;;22.88;;
46288;SDS011;63105;46.158;14.604;2022-12-29T16:11:03;32.50;;;21.13;;
46288;SDS011;63105;46.158;14.604;2022-12-29T16:13:34;54.03;;;31.60;;
46288;SDS011;63105;46.158;14.604;2022-12-29T16:16:07;45.80;;;28.00;;